createdAt,value
2017-07-05T00:00:18.541Z,45.13
2017-07-05T00:01:28.120Z,44.93
2017-07-05T00:02:37.394Z,45.13
2017-07-05T00:03:46.048Z,45.03
2017-07-05T00:04:54.705Z,45.13
2017-07-05T00:06:03.976Z,45.03
2017-07-05T00:07:12.963Z,44.93
2017-07-05T00:08:22.859Z,45.42
2017-07-05T00:09:31.497Z,45.32
2017-07-05T00:10:41.094Z,45.78
2017-07-05T00:11:50.073Z,45.59
2017-07-05T00:12:59.032Z,46.26
2017-07-05T00:14:08.005Z,46.26
2017-07-05T00:15:17.913Z,46.56
2017-07-05T00:16:27.190Z,46.34
2017-07-05T00:17:36.146Z,46.73
2017-07-05T00:18:45.101Z,46.63
2017-07-05T00:19:54.061Z,46.83
2017-07-05T00:21:03.025Z,46.83
2017-07-05T00:22:11.982Z,46.53
2017-07-05T00:23:20.948Z,46.73
2017-07-05T00:24:30.543Z,47.21
2017-07-05T00:25:39.517Z,47.21
2017-07-05T00:26:48.489Z,47.19
2017-07-05T00:27:57.451Z,47.38
2017-07-05T00:29:06.742Z,47.38
2017-07-05T00:30:15.706Z,47.28
2017-07-05T00:31:24.345Z,47.19
2017-07-05T00:32:33.317Z,47.58
2017-07-05T00:33:42.588Z,47.67
2017-07-05T00:34:51.537Z,47.48
2017-07-05T00:36:00.492Z,47.38
2017-07-05T00:37:09.453Z,47.38
2017-07-05T00:38:18.722Z,47.19
2017-07-05T00:39:27.987Z,47.48
2017-07-05T00:40:37.286Z,47.09
2017-07-05T00:41:46.871Z,47.28
2017-07-05T00:42:56.453Z,47.5
2017-07-05T00:44:05.402Z,46.73
2017-07-05T00:45:14.675Z,47.02
2017-07-05T00:46:23.955Z,46.73
2017-07-05T00:47:33.243Z,46.53
2017-07-05T00:48:41.877Z,46.34
2017-07-05T00:49:51.209Z,46.63
2017-07-05T00:51:00.165Z,46.44
2017-07-05T00:52:09.454Z,46.34
2017-07-05T00:53:18.473Z,46.44
2017-07-05T00:54:27.737Z,46.34
2017-07-05T00:55:36.703Z,46.44
2017-07-05T00:56:45.994Z,46.25
2017-07-05T00:57:55.003Z,46.15
2017-07-05T00:59:03.597Z,45.98
2017-07-05T01:00:13.205Z,45.95
2017-07-05T01:01:22.469Z,46.17
2017-07-05T01:02:31.731Z,46.05
2017-07-05T01:03:40.697Z,46.26
2017-07-05T01:04:49.973Z,46.17
2017-07-05T01:05:59.244Z,46.26
2017-07-05T01:07:08.225Z,46.17
2017-07-05T01:08:17.823Z,46.08
2017-07-05T01:09:27.097Z,46.08
2017-07-05T01:10:36.370Z,45.78
2017-07-05T01:11:45.650Z,45.78
2017-07-05T01:12:54.618Z,46.17
2017-07-05T01:14:03.582Z,46.08
2017-07-05T01:15:12.218Z,45.78
2017-07-05T01:16:21.185Z,45.98
2017-07-05T01:17:30.132Z,45.98
2017-07-05T01:18:39.402Z,45.88
2017-07-05T01:19:48.362Z,46.08
2017-07-05T01:20:57.632Z,45.88
2017-07-05T01:22:06.281Z,46.08
2017-07-05T01:23:15.569Z,45.78
2017-07-05T01:24:24.213Z,45.88
2017-07-05T01:25:33.180Z,46.08
2017-07-05T01:26:42.136Z,45.98
2017-07-05T01:27:50.774Z,45.88
2017-07-05T01:28:59.723Z,45.78
2017-07-05T01:30:08.681Z,45.78
2017-07-05T01:31:17.637Z,45.78
2017-07-05T01:32:26.905Z,45.98
2017-07-05T01:33:36.168Z,46.36
2017-07-05T01:34:45.439Z,46.66
2017-07-05T01:35:54.395Z,46.36
2017-07-05T01:37:03.982Z,46.75
2017-07-05T01:38:12.929Z,46.44
2017-07-05T01:39:22.245Z,46.73
2017-07-05T01:40:31.147Z,46.73
2017-07-05T01:41:40.120Z,46.83
2017-07-05T01:42:49.380Z,46.83
2017-07-05T01:43:58.028Z,46.83
2017-07-05T01:45:07.293Z,46.73
2017-07-05T01:46:16.879Z,46.83
2017-07-05T01:47:25.836Z,46.44
2017-07-05T01:48:35.095Z,46.92
2017-07-05T01:49:44.361Z,47.41
2017-07-05T01:50:53.637Z,47.31
2017-07-05T01:52:02.903Z,47.31
2017-07-05T01:53:12.486Z,47.5
2017-07-05T01:54:21.128Z,47.31
2017-07-05T01:55:30.084Z,47.11
2017-07-05T01:56:39.659Z,47.41
2017-07-05T01:57:48.625Z,47.31
2017-07-05T01:58:57.902Z,47.09
2017-07-05T02:00:07.477Z,47.5
2017-07-05T02:01:16.744Z,47.77
2017-07-05T02:02:25.710Z,47.86
2017-07-05T02:03:34.646Z,47.67
2017-07-05T02:04:43.279Z,47.86
2017-07-05T02:05:52.231Z,48.44
2017-07-05T02:07:01.516Z,48.25
2017-07-05T02:08:10.511Z,48.64
2017-07-05T02:09:19.427Z,48.74
2017-07-05T02:10:28.384Z,48.71
2017-07-05T02:11:38.282Z,48.52
2017-07-05T02:12:46.921Z,48.42
2017-07-05T02:13:56.198Z,48.61
2017-07-05T02:15:05.148Z,48.52
2017-07-05T02:16:14.422Z,48.52
2017-07-05T02:17:23.374Z,48.81
2017-07-05T02:18:32.016Z,49
2017-07-05T02:19:40.983Z,48.71
2017-07-05T02:20:50.568Z,49
2017-07-05T02:21:59.520Z,49.07
2017-07-05T02:23:08.157Z,48.79
2017-07-05T02:24:17.744Z,48.97
2017-07-05T02:25:26.710Z,49.27
2017-07-05T02:26:35.656Z,49.07
2017-07-05T02:27:44.929Z,49.27
2017-07-05T02:28:53.897Z,49.27
2017-07-05T02:30:02.864Z,49.65
2017-07-05T02:31:11.512Z,49.55
2017-07-05T02:32:20.158Z,49.65
2017-07-05T02:33:29.119Z,49.95
2017-07-05T02:34:38.080Z,49.46
2017-07-05T02:35:46.732Z,50.04
2017-07-05T02:36:56.309Z,50.21
2017-07-05T02:38:05.893Z,49.92
2017-07-05T02:39:15.156Z,49.46
2017-07-05T02:40:24.102Z,49.95
2017-07-05T02:41:33.683Z,49.65
2017-07-05T02:42:42.957Z,49.07
2017-07-05T02:43:51.599Z,48.79
2017-07-05T02:45:00.868Z,48.97
2017-07-05T02:46:09.829Z,49.27
2017-07-05T02:47:19.411Z,48.97
2017-07-05T02:48:28.049Z,48.9
2017-07-05T02:49:37.005Z,48.71
2017-07-05T02:50:45.951Z,48.42
2017-07-05T02:51:55.219Z,48.61
2017-07-05T02:53:04.171Z,48.71
2017-07-05T02:54:13.442Z,48.71
2017-07-05T02:55:22.389Z,48.71
2017-07-05T02:56:31.027Z,48.42
2017-07-05T02:57:40.305Z,48.52
2017-07-05T02:58:49.880Z,48.81
2017-07-05T02:59:58.856Z,48.9
2017-07-05T03:01:08.135Z,48.69
2017-07-05T03:02:17.719Z,48.69
2017-07-05T03:03:27.303Z,49
2017-07-05T03:04:36.637Z,48.42
2017-07-05T03:05:45.597Z,48.52
2017-07-05T03:06:54.553Z,48.61
2017-07-05T03:08:03.506Z,48.71
2017-07-05T03:09:12.768Z,48.81
2017-07-05T03:10:21.412Z,48.81
2017-07-05T03:11:30.373Z,48.61
2017-07-05T03:12:39.649Z,48.71
2017-07-05T03:13:48.595Z,48.61
2017-07-05T03:14:58.502Z,48.71
2017-07-05T03:16:07.452Z,48.93
2017-07-05T03:17:17.672Z,48.32
2017-07-05T03:18:26.307Z,48.32
2017-07-05T03:19:35.264Z,48.9
2017-07-05T03:20:44.531Z,48.71
2017-07-05T03:21:53.482Z,48.61
2017-07-05T03:23:02.112Z,48.61
2017-07-05T03:24:10.749Z,48.81
2017-07-05T03:25:19.695Z,48.9
2017-07-05T03:26:28.645Z,48.81
2017-07-05T03:27:37.597Z,48.52
2017-07-05T03:28:46.872Z,48.71
2017-07-05T03:29:55.827Z,48.42
2017-07-05T03:31:04.784Z,48.61
2017-07-05T03:32:14.362Z,48.42
2017-07-05T03:33:23.001Z,48.61
2017-07-05T03:34:31.952Z,48.42
2017-07-05T03:35:41.544Z,48.42
2017-07-05T03:36:50.810Z,48.52
2017-07-05T03:37:59.449Z,48.61
2017-07-05T03:39:09.034Z,48.71
2017-07-05T03:40:18.002Z,48.52
2017-07-05T03:41:26.641Z,48.61
2017-07-05T03:42:35.298Z,49
2017-07-05T03:43:44.881Z,48.52
2017-07-05T03:44:54.170Z,48.35
2017-07-05T03:46:03.129Z,48.74
2017-07-05T03:47:12.395Z,48.64
2017-07-05T03:48:21.657Z,48.74
2017-07-05T03:49:30.940Z,48.35
2017-07-05T03:50:39.575Z,48.44
2017-07-05T03:51:49.190Z,48.54
2017-07-05T03:52:58.139Z,48.54
2017-07-05T03:54:07.105Z,48.64
2017-07-05T03:55:16.380Z,48.74
2017-07-05T03:56:25.021Z,48.52
2017-07-05T03:57:33.969Z,48.9
2017-07-05T03:58:42.924Z,49
2017-07-05T03:59:51.562Z,48.52
2017-07-05T04:01:00.835Z,49
2017-07-05T04:02:10.103Z,49.19
2017-07-05T04:03:19.394Z,49
2017-07-05T04:04:28.658Z,49.19
2017-07-05T04:05:37.926Z,49
2017-07-05T04:06:46.881Z,48.81
2017-07-05T04:07:55.843Z,49.19
2017-07-05T04:09:05.107Z,49
2017-07-05T04:10:14.375Z,49.49
2017-07-05T04:11:23.658Z,49.65
2017-07-05T04:12:32.614Z,49.75
2017-07-05T04:13:42.204Z,50.13
2017-07-05T04:14:51.790Z,49.95
2017-07-05T04:16:00.434Z,50.04
2017-07-05T04:17:09.698Z,50.04
2017-07-05T04:18:18.341Z,50.13
2017-07-05T04:19:26.978Z,50.13
2017-07-05T04:20:35.614Z,49.65
2017-07-05T04:21:44.251Z,49.95
2017-07-05T04:22:53.824Z,50.23
2017-07-05T04:24:02.460Z,50.13
2017-07-05T04:25:11.406Z,50.23
2017-07-05T04:28:33.517Z,50.04
2017-07-05T04:29:43.104Z,50.01
2017-07-05T04:30:52.373Z,50.4
2017-07-05T04:32:01.953Z,50.13
2017-07-05T04:33:11.230Z,50.11
2017-07-05T04:34:20.185Z,50.33
2017-07-05T04:35:29.774Z,50.23
2017-07-05T04:36:39.048Z,50.31
2017-07-05T04:37:47.683Z,50.5
2017-07-05T04:38:57.265Z,50.01
2017-07-05T04:40:05.904Z,50.4
2017-07-05T04:41:15.167Z,49.92
2017-07-05T04:42:23.802Z,50.13
2017-07-05T04:43:33.068Z,49.95
2017-07-05T04:44:41.714Z,50.13
2017-07-05T04:45:50.979Z,49.55
2017-07-05T04:47:00.257Z,49.65
2017-07-05T04:48:08.899Z,49.17
2017-07-05T04:49:17.541Z,49
2017-07-05T04:50:26.509Z,48.97
2017-07-05T04:51:35.463Z,49
2017-07-05T04:52:44.743Z,48.52
2017-07-05T04:53:53.387Z,48.71
2017-07-05T04:55:02.033Z,48.61
2017-07-05T04:56:11.304Z,48.52
2017-07-05T04:57:20.265Z,48.52
2017-07-05T04:58:29.535Z,48.44
2017-07-05T04:59:38.487Z,48.16
2017-07-05T05:00:47.441Z,48.16
2017-07-05T05:01:56.400Z,47.96
2017-07-05T05:03:05.665Z,47.99
2017-07-05T05:04:14.931Z,47.67
2017-07-05T05:05:24.513Z,47.41
2017-07-05T05:06:33.469Z,47.6
2017-07-05T05:07:42.789Z,47.11
2017-07-05T05:08:51.726Z,47.5
2017-07-05T05:10:00.683Z,47.5
2017-07-05T05:11:09.960Z,47.11
2017-07-05T05:12:19.228Z,47.31
2017-07-05T05:13:28.493Z,47.41
2017-07-05T05:14:37.458Z,47.5
2017-07-05T05:15:47.044Z,46.94
2017-07-05T05:16:56.316Z,46.75
2017-07-05T05:18:05.583Z,46.84
2017-07-05T05:19:14.863Z,46.66
2017-07-05T05:20:23.518Z,46.56
2017-07-05T05:21:32.472Z,46.84
2017-07-05T05:22:41.115Z,46.36
2017-07-05T05:23:50.385Z,46.58
2017-07-05T05:24:59.337Z,46.48
2017-07-05T05:26:07.986Z,45.81
2017-07-05T05:27:16.952Z,46.39
2017-07-05T05:28:25.904Z,45.51
2017-07-05T05:29:34.615Z,45.83
2017-07-05T05:30:43.261Z,45.44
2017-07-05T05:31:52.214Z,45.15
2017-07-05T05:33:01.545Z,45.15
2017-07-05T05:34:10.567Z,44.88
2017-07-05T05:35:19.597Z,44.88
2017-07-05T05:36:28.890Z,44.3
2017-07-05T05:37:37.539Z,44.4
2017-07-05T05:38:46.183Z,44.32
2017-07-05T05:39:55.459Z,44.13
2017-07-05T05:41:04.115Z,43.64
2017-07-05T05:42:12.835Z,43.95
2017-07-05T05:43:21.500Z,43.76
2017-07-05T05:44:30.773Z,43.27
2017-07-05T05:45:40.360Z,43.18
2017-07-05T05:46:49.633Z,43.3
2017-07-05T05:47:59.022Z,42.91
2017-07-05T05:49:08.316Z,42.91
2017-07-05T05:50:17.286Z,42.61
2017-07-05T05:51:26.250Z,42.93
2017-07-05T05:52:35.541Z,42.83
2017-07-05T05:53:45.443Z,42.74
2017-07-05T05:54:54.091Z,42.74
2017-07-05T05:56:03.044Z,42.93
2017-07-05T05:57:12.022Z,42.93
2017-07-05T05:58:21.337Z,43.12
2017-07-05T05:59:30.307Z,43.12
2017-07-05T06:00:39.596Z,43.22
2017-07-05T06:01:48.256Z,43.12
2017-07-05T06:02:57.534Z,42.93
2017-07-05T06:04:06.823Z,42.93
2017-07-05T06:05:16.099Z,43.1
2017-07-05T06:06:25.058Z,43.02
2017-07-05T06:07:34.335Z,42.74
2017-07-05T06:08:42.980Z,42.54
2017-07-05T06:09:51.954Z,42.64
2017-07-05T06:11:01.548Z,42.74
2017-07-05T06:12:10.519Z,42.54
2017-07-05T06:13:19.487Z,42.66
2017-07-05T06:14:29.139Z,42.27
2017-07-05T06:15:38.114Z,42.56
2017-07-05T06:16:46.782Z,42.56
2017-07-05T06:17:55.448Z,42.36
2017-07-05T06:19:05.036Z,42.56
2017-07-05T06:20:13.687Z,42.08
2017-07-05T06:21:23.135Z,42
2017-07-05T06:22:32.435Z,41.9
2017-07-05T06:23:41.091Z,41.51
2017-07-05T06:24:50.375Z,41.13
2017-07-05T06:25:59.353Z,41.24
2017-07-05T06:27:08.328Z,41.24
2017-07-05T06:28:17.294Z,40.95
2017-07-05T06:29:26.895Z,40.95
2017-07-05T06:30:36.220Z,41.05
2017-07-05T06:31:45.504Z,40.68
2017-07-05T06:32:54.493Z,40.78
2017-07-05T06:34:03.482Z,40.78
2017-07-05T06:35:13.112Z,40.89
2017-07-05T06:36:22.094Z,40.89
2017-07-05T06:37:31.378Z,40.99
2017-07-05T06:38:40.711Z,40.99
2017-07-05T06:39:50.312Z,40.8
2017-07-05T06:40:59.292Z,40.89
2017-07-05T06:42:07.941Z,40.89
2017-07-05T06:43:17.224Z,40.89
2017-07-05T06:44:26.523Z,40.6
2017-07-05T06:45:35.830Z,40.89
2017-07-05T06:46:45.235Z,40.89
2017-07-05T06:47:54.243Z,40.8
2017-07-05T06:49:02.896Z,40.7
2017-07-05T06:50:11.567Z,40.7
2017-07-05T06:51:20.563Z,40.7
2017-07-05T06:52:29.841Z,40.7
2017-07-05T06:53:38.811Z,40.8
2017-07-05T06:54:48.082Z,40.8
2017-07-05T06:55:57.381Z,40.6
2017-07-05T06:57:06.061Z,40.7
2017-07-05T06:58:14.727Z,41.09
2017-07-05T06:59:23.698Z,41.19
2017-07-05T07:00:33.603Z,40.99
2017-07-05T07:01:42.892Z,40.99
2017-07-05T07:02:52.190Z,40.99
2017-07-05T07:04:01.159Z,40.99
2017-07-05T07:05:10.117Z,40.89
2017-07-05T07:06:19.451Z,41.09
2017-07-05T07:07:28.427Z,41.19
2017-07-05T07:08:37.407Z,40.72
2017-07-05T07:09:46.376Z,40.91
2017-07-05T07:10:55.054Z,40.52
2017-07-05T07:12:04.031Z,40.06
2017-07-05T07:13:13.108Z,39.86
2017-07-05T07:14:22.064Z,39.37
2017-07-05T07:15:30.756Z,39.39
2017-07-05T07:16:40.567Z,39.1
2017-07-05T07:17:49.850Z,38.71
2017-07-05T07:18:58.826Z,38.43
2017-07-05T07:20:07.816Z,38.14
2017-07-05T07:21:16.470Z,38.06
2017-07-05T07:22:25.737Z,37.4
2017-07-05T07:23:34.697Z,37.21
2017-07-05T07:24:43.664Z,36.93
2017-07-05T07:25:53.259Z,36.34
2017-07-05T07:27:02.543Z,35.87
2017-07-05T07:28:11.502Z,35.6
2017-07-05T07:29:20.158Z,35.42
2017-07-05T07:30:29.453Z,34.83
2017-07-05T07:31:38.414Z,34.26
2017-07-05T07:32:48.007Z,34.57
2017-07-05T07:33:56.992Z,33.79
2017-07-05T07:35:05.976Z,33.7
2017-07-05T07:36:14.627Z,33.23
2017-07-05T07:37:23.598Z,32.94
2017-07-05T07:38:32.954Z,32.66
2017-07-05T07:39:41.935Z,32.48
2017-07-05T07:40:51.550Z,32.18
2017-07-05T07:42:00.844Z,31.81
2017-07-05T07:43:09.500Z,31.63
2017-07-05T07:44:18.161Z,31.33
2017-07-05T07:45:27.127Z,31.35
2017-07-05T07:46:35.787Z,31.05
2017-07-05T07:47:44.766Z,30.87
2017-07-05T07:48:53.721Z,30.77
2017-07-05T07:50:03.027Z,30.69
2017-07-05T07:51:11.690Z,30.51
2017-07-05T07:52:20.960Z,29.92
2017-07-05T07:53:29.615Z,29.72
2017-07-05T07:54:38.894Z,29.44
2017-07-05T07:55:48.493Z,29.65
2017-07-05T07:56:57.834Z,29.75
2017-07-05T07:58:07.445Z,29.35
2017-07-05T07:59:16.092Z,29.27
2017-07-05T08:00:25.672Z,29.17
2017-07-05T08:01:34.955Z,28.97
2017-07-05T08:02:44.245Z,28.99
2017-07-05T08:03:53.244Z,29.09
2017-07-05T08:05:02.523Z,28.41
2017-07-05T08:06:11.488Z,28.41
2017-07-05T08:07:20.449Z,28.61
2017-07-05T08:08:29.103Z,28.42
2017-07-05T08:09:38.379Z,28.41
2017-07-05T08:10:47.340Z,28.42
2017-07-05T08:11:56.323Z,28.52
2017-07-05T08:13:05.626Z,28.14
2017-07-05T08:14:14.597Z,28.34
2017-07-05T08:15:23.315Z,28.42
2017-07-05T08:16:31.980Z,28.44
2017-07-05T08:17:40.628Z,28.24
2017-07-05T08:18:50.216Z,28.24
2017-07-05T08:19:59.176Z,28.24
2017-07-05T08:21:08.149Z,28.05
2017-07-05T08:22:17.436Z,28.35
2017-07-05T08:23:26.089Z,28.06
2017-07-05T08:24:35.371Z,27.86
2017-07-05T08:25:44.345Z,27.86
2017-07-05T08:26:53.649Z,27.97
2017-07-05T08:28:02.630Z,27.97
2017-07-05T08:29:11.278Z,27.97
2017-07-05T08:30:20.572Z,27.87
2017-07-05T08:31:29.221Z,28.07
2017-07-05T08:32:38.503Z,27.87
2017-07-05T08:33:47.778Z,27.87
2017-07-05T08:34:56.446Z,27.87
2017-07-05T08:36:06.111Z,27.87
2017-07-05T08:37:15.395Z,28.07
2017-07-05T08:38:24.672Z,28.27
2017-07-05T08:39:33.941Z,28.47
2017-07-05T08:40:42.911Z,28.37
2017-07-05T08:41:51.916Z,28.37
2017-07-05T08:43:01.839Z,28.56
2017-07-05T08:44:11.125Z,28.47
2017-07-05T08:45:21.035Z,29.34
2017-07-05T08:46:30.303Z,29.62
2017-07-05T08:47:39.270Z,30.6
2017-07-05T08:48:48.560Z,30.98
2017-07-05T08:49:57.848Z,31.34
2017-07-05T08:51:07.159Z,32.11
2017-07-05T08:52:16.118Z,32.59
2017-07-05T08:53:25.108Z,33.07
2017-07-05T08:54:33.764Z,33.94
2017-07-05T08:55:43.367Z,33.72
2017-07-05T08:56:52.422Z,34.69
2017-07-05T08:58:01.070Z,34.97
2017-07-05T08:59:10.348Z,35.83
2017-07-05T09:00:19.940Z,36.01
2017-07-05T09:01:28.925Z,36.58
2017-07-05T09:02:37.576Z,37.15
2017-07-05T09:03:46.859Z,37.54
2017-07-05T09:04:55.819Z,37.92
2017-07-05T09:06:04.485Z,38.1
2017-07-05T09:07:13.135Z,38.29
2017-07-05T09:08:22.106Z,38.86
2017-07-05T09:09:31.074Z,38.94
2017-07-05T09:10:40.042Z,39.33
2017-07-05T09:11:49.341Z,39.7
2017-07-05T09:12:58.322Z,40.09
2017-07-05T09:14:07.984Z,40.37
2017-07-05T09:15:16.962Z,40.86
2017-07-05T09:16:26.239Z,41.23
2017-07-05T09:17:35.846Z,41.23
2017-07-05T09:18:44.816Z,41.41
2017-07-05T09:19:53.780Z,41.5
2017-07-05T09:21:02.430Z,41.99
2017-07-05T09:22:11.217Z,42.26
2017-07-05T09:23:19.874Z,42.26
2017-07-05T09:24:28.535Z,42.63
2017-07-05T09:25:38.124Z,42.44
2017-07-05T09:26:47.101Z,42.83
2017-07-05T09:27:56.711Z,42.8
2017-07-05T09:29:05.681Z,42.9
2017-07-05T09:30:15.291Z,43.1
2017-07-05T09:31:23.945Z,43.39
2017-07-05T09:32:32.941Z,43.47
2017-07-05T09:33:41.918Z,43.18
2017-07-05T09:34:51.213Z,43.47
2017-07-05T09:36:00.186Z,43.47
2017-07-05T09:37:09.784Z,43.64
2017-07-05T09:38:19.370Z,43.74
2017-07-05T09:39:28.024Z,44.32
2017-07-05T09:40:37.296Z,44.03
2017-07-05T09:41:46.573Z,44.03
2017-07-05T09:42:55.911Z,44.13
2017-07-05T09:44:05.192Z,43.91
2017-07-05T09:45:14.482Z,43.91
2017-07-05T09:46:23.443Z,44.01
2017-07-05T09:47:32.731Z,43.91
2017-07-05T09:48:42.337Z,44.4
2017-07-05T09:49:52.254Z,44.49
2017-07-05T09:51:01.556Z,44.4
2017-07-05T09:52:10.531Z,44.2
2017-07-05T09:53:19.178Z,44.38
2017-07-05T09:54:28.456Z,44.3
2017-07-05T09:55:37.737Z,44.76
2017-07-05T09:56:47.011Z,44.57
2017-07-05T09:57:55.978Z,44.48
2017-07-05T09:59:04.945Z,44.57
2017-07-05T10:00:14.287Z,44.48
2017-07-05T10:01:23.576Z,44.57
2017-07-05T10:02:32.538Z,44.57
2017-07-05T10:03:41.524Z,44.48
2017-07-05T10:04:50.803Z,44.65
2017-07-05T10:05:59.477Z,44.45
2017-07-05T10:07:09.061Z,44.48
2017-07-05T10:08:18.018Z,44.57
2017-07-05T10:09:26.991Z,44.65
2017-07-05T10:10:36.270Z,44.65
2017-07-05T10:11:45.234Z,44.35
2017-07-05T10:12:54.831Z,44.26
2017-07-05T10:14:04.427Z,44.74
2017-07-05T10:15:13.394Z,44.74
2017-07-05T10:16:22.696Z,44.35
2017-07-05T10:17:31.978Z,44.35
2017-07-05T10:18:41.244Z,44.35
2017-07-05T10:19:50.518Z,44.45
2017-07-05T10:21:00.128Z,44.45
2017-07-05T10:22:09.096Z,44.45
2017-07-05T10:23:18.056Z,44.24
2017-07-05T10:24:27.029Z,44.35
2017-07-05T10:25:36.004Z,44.53
2017-07-05T10:26:45.285Z,44.43
2017-07-05T10:27:54.573Z,44.33
2017-07-05T10:29:04.171Z,44.33
2017-07-05T10:30:13.464Z,44.33
2017-07-05T10:31:22.156Z,44.43
2017-07-05T10:32:31.483Z,44.43
2017-07-05T10:33:40.761Z,44.62
2017-07-05T10:34:50.059Z,44.43
2017-07-05T10:35:59.024Z,44.53
2017-07-05T10:37:08.938Z,44.43
2017-07-05T10:38:17.901Z,44.41
2017-07-05T10:39:27.180Z,44.62
2017-07-05T10:40:35.834Z,44.53
2017-07-05T10:41:45.436Z,44.53
2017-07-05T10:42:54.102Z,44.33
2017-07-05T10:44:03.069Z,44.43
2017-07-05T10:45:12.683Z,44.24
2017-07-05T10:46:21.653Z,44.43
2017-07-05T10:47:31.261Z,44.33
2017-07-05T10:48:39.908Z,44.51
2017-07-05T10:49:48.572Z,44.33
2017-07-05T10:50:57.547Z,44.33
2017-07-05T10:52:06.517Z,44.33
2017-07-05T10:53:15.477Z,44.53
2017-07-05T10:54:24.438Z,44.43
2017-07-05T10:55:33.726Z,44.53
2017-07-05T10:56:42.387Z,44.43
2017-07-05T10:57:51.673Z,44.41
2017-07-05T10:59:00.635Z,44.31
2017-07-05T11:00:10.230Z,44.41
2017-07-05T11:01:19.197Z,44.51
2017-07-05T11:02:28.484Z,44.12
2017-07-05T11:03:37.468Z,44.21
2017-07-05T11:04:46.758Z,44.21
2017-07-05T11:05:55.406Z,44.14
2017-07-05T11:07:05.000Z,44.43
2017-07-05T11:08:14.284Z,44.21
2017-07-05T11:09:22.944Z,44.51
2017-07-05T11:10:31.913Z,44.21
2017-07-05T11:11:40.887Z,44.12
2017-07-05T11:12:49.544Z,44.02
2017-07-05T11:13:58.513Z,44.21
2017-07-05T11:15:08.120Z,44.21
2017-07-05T11:16:17.110Z,44.12
2017-07-05T11:17:26.078Z,44.12
2017-07-05T11:18:35.070Z,44.31
2017-07-05T11:19:44.347Z,44.02
2017-07-05T11:20:53.327Z,44.12
2017-07-05T11:22:02.940Z,44.21
2017-07-05T11:23:11.926Z,44.41
2017-07-05T11:24:20.903Z,44.41
2017-07-05T11:25:29.867Z,44.41
2017-07-05T11:26:39.141Z,44.41
2017-07-05T11:27:47.901Z,44.21
2017-07-05T11:28:57.810Z,44.21
2017-07-05T11:30:06.476Z,44.31
2017-07-05T11:31:15.449Z,44.41
2017-07-05T11:32:24.431Z,44.41
2017-07-05T11:33:33.399Z,44.41
2017-07-05T11:34:42.702Z,44.31
2017-07-05T11:35:51.667Z,44.31
2017-07-05T11:37:00.964Z,44.41
2017-07-05T11:38:09.623Z,44.41
2017-07-05T11:39:18.306Z,44.31
2017-07-05T11:40:26.968Z,44.41
2017-07-05T11:41:36.394Z,44.41
2017-07-05T11:42:45.095Z,44.41
2017-07-05T11:43:54.386Z,44.31
2017-07-05T11:45:03.352Z,44.31
2017-07-05T11:46:12.328Z,44.12
2017-07-05T11:47:21.309Z,44.21
2017-07-05T11:48:30.601Z,44.02
2017-07-05T11:49:39.576Z,44.02
2017-07-05T11:50:48.546Z,44.31
2017-07-05T11:51:57.223Z,44.41
2017-07-05T11:53:05.878Z,44.31
2017-07-05T11:54:14.527Z,44.21
2017-07-05T11:55:23.488Z,44.31
2017-07-05T11:56:32.805Z,44.41
2017-07-05T11:57:42.088Z,44.41
2017-07-05T11:58:50.751Z,44.02
2017-07-05T11:59:59.409Z,44.41
2017-07-05T12:01:08.708Z,44.38
2017-07-05T12:02:17.992Z,44.09
2017-07-05T12:03:26.952Z,44
2017-07-05T12:04:35.912Z,44.09
2017-07-05T12:05:44.573Z,44.21
2017-07-05T12:06:53.271Z,44.19
2017-07-05T12:08:02.867Z,44.19
2017-07-05T12:09:11.517Z,44.19
2017-07-05T12:10:21.156Z,44.09
2017-07-05T12:11:29.813Z,44.19
2017-07-05T12:12:38.794Z,44
2017-07-05T12:13:48.078Z,44.19
2017-07-05T12:14:57.085Z,44.09
2017-07-05T12:16:06.048Z,44.19
2017-07-05T12:17:15.024Z,44.19
2017-07-05T12:18:24.317Z,44.19
2017-07-05T12:19:33.936Z,44.19
2017-07-05T12:20:43.245Z,43.9
2017-07-05T12:21:52.252Z,44.29
2017-07-05T12:23:01.221Z,44.19
2017-07-05T12:24:09.900Z,44.19
2017-07-05T12:25:18.884Z,44.09
2017-07-05T12:26:27.537Z,44.29
2017-07-05T12:27:36.207Z,44.19
2017-07-05T12:28:45.199Z,44.09
2017-07-05T12:29:54.805Z,44.09
2017-07-05T12:31:03.479Z,44
2017-07-05T12:32:12.782Z,44.09
2017-07-05T12:33:21.758Z,44.09
2017-07-05T12:34:30.760Z,44.19
2017-07-05T12:35:40.050Z,44.19
2017-07-05T12:36:49.032Z,44.38
2017-07-05T12:37:58.028Z,44.38
2017-07-05T12:39:06.992Z,44.38
2017-07-05T12:40:15.687Z,44.38
2017-07-05T12:41:24.986Z,44.38
2017-07-05T12:42:33.979Z,44.38
2017-07-05T12:43:43.265Z,44.19
2017-07-05T12:44:52.256Z,44.48
2017-07-05T12:46:01.570Z,44.19
2017-07-05T12:47:10.865Z,44.38
2017-07-05T12:48:19.843Z,44.29
2017-07-05T12:49:28.515Z,44.48
2017-07-05T12:50:37.528Z,44.48
2017-07-05T12:51:47.160Z,44.38
2017-07-05T12:52:56.768Z,44.38
2017-07-05T12:54:05.751Z,44.38
2017-07-05T12:55:14.731Z,44.29
2017-07-05T12:56:24.019Z,44.29
2017-07-05T12:57:32.989Z,44.38
2017-07-05T12:58:41.679Z,44.29
2017-07-05T12:59:51.299Z,44.29
2017-07-05T13:01:00.269Z,44.38
2017-07-05T13:02:09.235Z,44.48
2017-07-05T13:03:18.223Z,44.38
2017-07-05T13:04:27.508Z,44.19
2017-07-05T13:05:36.480Z,44.48
2017-07-05T13:06:45.144Z,44.29
2017-07-05T13:07:54.108Z,44.29
2017-07-05T13:09:03.071Z,43.8
2017-07-05T13:10:12.033Z,44.19
2017-07-05T13:11:21.312Z,43.8
2017-07-05T13:12:29.970Z,43.9
2017-07-05T13:13:38.957Z,43.71
2017-07-05T13:14:47.931Z,43.9
2017-07-05T13:15:56.598Z,43.9
2017-07-05T13:17:05.892Z,43.8
2017-07-05T13:18:14.553Z,43.71
2017-07-05T13:19:23.532Z,44.09
2017-07-05T13:20:32.815Z,43.9
2017-07-05T13:21:41.789Z,43.8
2017-07-05T13:22:51.107Z,43.9
2017-07-05T13:24:00.076Z,43.8
2017-07-05T13:25:09.075Z,43.9
2017-07-05T13:26:18.051Z,43.9
2017-07-05T13:27:27.010Z,43.8
2017-07-05T13:28:35.993Z,43.9
2017-07-05T13:29:45.586Z,43.9
2017-07-05T13:30:54.570Z,43.8
2017-07-05T13:32:03.856Z,43.8
2017-07-05T13:33:13.151Z,43.9
2017-07-05T13:34:22.432Z,44
2017-07-05T13:35:31.077Z,43.8
2017-07-05T13:36:40.047Z,43.9
2017-07-05T13:37:48.702Z,43.9
2017-07-05T13:38:57.399Z,44
2017-07-05T13:40:06.094Z,44
2017-07-05T13:41:15.050Z,44
2017-07-05T13:42:24.354Z,44
2017-07-05T13:43:33.973Z,43.8
2017-07-05T13:44:42.968Z,44
2017-07-05T13:45:51.630Z,43.8
2017-07-05T13:47:00.925Z,43.9
2017-07-05T13:48:10.197Z,44
2017-07-05T13:49:19.483Z,43.8
2017-07-05T13:50:28.162Z,44
2017-07-05T13:51:36.873Z,44
2017-07-05T13:52:46.163Z,44
2017-07-05T13:53:54.985Z,43.9
2017-07-05T13:55:04.283Z,44
2017-07-05T13:56:13.252Z,44
2017-07-05T13:57:22.536Z,44
2017-07-05T13:58:32.278Z,44.09
2017-07-05T13:59:41.567Z,43.9
2017-07-05T14:00:50.851Z,43.9
2017-07-05T14:02:00.144Z,43.9
2017-07-05T14:03:09.762Z,44
2017-07-05T14:04:19.044Z,43.9
2017-07-05T14:05:29.007Z,43.9
2017-07-05T14:06:37.982Z,44.09
2017-07-05T14:07:47.047Z,44.19
2017-07-05T14:08:56.148Z,43.71
2017-07-05T14:10:05.122Z,43.8
2017-07-05T14:11:14.400Z,43.8
2017-07-05T14:12:24.316Z,43.8
2017-07-05T14:13:33.306Z,43.71
2017-07-05T14:14:42.657Z,43.71
2017-07-05T14:15:51.315Z,43.61
2017-07-05T14:17:00.287Z,43.71
2017-07-05T14:18:09.585Z,43.8
2017-07-05T14:19:18.241Z,43.8
2017-07-05T14:20:27.281Z,43.8
2017-07-05T14:21:36.256Z,43.71
2017-07-05T14:22:45.862Z,43.71
2017-07-05T14:23:54.527Z,43.8
2017-07-05T14:25:03.505Z,44.19
2017-07-05T14:26:12.163Z,44.19
2017-07-05T14:27:21.142Z,43.9
2017-07-05T14:28:29.813Z,43.9
2017-07-05T14:29:38.812Z,43.9
2017-07-05T14:30:47.804Z,43.9
2017-07-05T14:31:56.480Z,43.9
2017-07-05T14:33:05.455Z,44.09
2017-07-05T14:34:14.145Z,44.09
2017-07-05T14:35:23.125Z,44.09
2017-07-05T14:36:32.713Z,43.9
2017-07-05T14:37:41.687Z,43.71
2017-07-05T14:38:50.958Z,43.9
2017-07-05T14:39:59.926Z,43.9
2017-07-05T14:41:08.901Z,43.9
2017-07-05T14:42:18.197Z,43.9
2017-07-05T14:43:26.868Z,43.8
2017-07-05T14:44:35.861Z,43.8
2017-07-05T14:45:45.142Z,44
2017-07-05T14:46:54.767Z,43.8
2017-07-05T14:48:03.464Z,43.8
2017-07-05T14:49:12.116Z,43.8
2017-07-05T14:50:21.078Z,43.9
2017-07-05T14:51:30.031Z,43.8
2017-07-05T14:52:39.316Z,44
2017-07-05T14:53:48.315Z,44
2017-07-05T14:54:57.280Z,43.88
2017-07-05T14:56:06.939Z,43.9
2017-07-05T14:57:15.621Z,43.8
2017-07-05T14:58:25.244Z,43.8
2017-07-05T14:59:34.214Z,43.78